• Join FlightAware (Why Join?)
  • Login
  • US Flag 
08:17PM EDT


 

Airport Tracker/Info


-or-


 

Live Flight TrackerFlight Track Log ✈ DAL6234 ✈ 19-Apr-2013 ✈ KLGA - KSYR

Flight Track Log - Related Links

Times and Time Zones

All times are in EDT time to prevent confusion due to time zone crossing. See the DAL6234 flight status page for this flight to view local times or setup timezone preferences in your user account.

Time Position Orientation Groundspeed Altitude Reporting Facility
EDT Latitude Longitude Course Direction KTS MPH feet Rate Location/Type
04:34PM 40.8306 -73.7411 313° West 268 308 4,800  Level New York Center
04:35PM 40.9000 -73.7667 344° North 283 326 7,400 2,580 Climbing New York TRACON
04:36PM 40.9500 -73.8333 315° West 286 329 9,900 2,100 Climbing New York TRACON
04:38PM 41.0858 -74.3582 313° West  Level FlightAware Approximate
04:38PM 41.0286 -74.0525 295° West 321 369 13,900  Level New York Center
04:39PM 41.1422 -74.4388 313° West  Level FlightAware Approximate
04:39PM 41.0711 -74.1647 297° West 338 389 16,000  Level New York Center
04:40PM 41.1097 -74.2683 296° West 343 395 16,000 540 Level New York Center
04:41PM 41.1600 -74.3978 297° West 350 403 17,100 1,440 Climbing New York Center
04:42PM 41.2042 -74.5186 296° West 358 412 18,900 1,680 Climbing New York Center
04:43PM 41.2547 -74.6264 302° West 370 426 20,600 1,500 Climbing New York Center
04:44PM 41.3239 -74.7408 309° West 383 441 22,000 660 Climbing New York Center
04:45PM 41.3972 -74.8531 311° West 399 459 22,000  Level New York Center
04:46PM 41.4800 -74.9828 310° West 413 475 22,000  Level New York Center
04:47PM 41.5528 -75.1008 310° West 413 475 22,000  Level New York Center
04:48PM 41.6236 -75.2192 309° West 413 475 22,000  Level New York Center
04:49PM 41.6958 -75.3408 309° West 413 475 22,000  Level New York Center
04:51PM 41.8344 -75.5758 308° West 413 475 22,000  Level New York Center
04:52PM 41.9006 -75.6892 308° West 408 470 22,000 -360 Level New York Center
04:53PM 41.9686 -75.8058 308° West 403 464 21,300 -1,200 Descending New York Center
04:54PM 42.0306 -75.9139 308° West 385 443 19,700 -1,800 Descending New York Center
04:55PM 42.0906 -76.0192 308° West 370 426 17,700 -1,920 Descending New York Center
04:56PM 42.1569 -76.1167 313° West 358 412 16,000 -3,420 Descending New York Center
04:57PM 42.2625 -76.1281 355° North 342 394 11,000 -1,860 Descending New York Center
04:57PM 42.3239 -76.1219 North 398 458 13,200 300 Climbing Boston Center
04:58PM 42.4286 -76.1111 North 382 440 11,500 -1,140 Descending Boston Center
04:59PM 42.5306 -76.1200 356° North 363 418 11,000 -420 Descending Boston Center
05:00PM 42.6322 -76.1344 354° North 368 423 10,700 -960 Descending Boston Center
05:01PM 42.7217 -76.1400 357° North 326 375 9,100 -1,620 Descending Boston Center
05:02PM 42.8111 -76.1453 358° North 316 364 7,400 -1,800 Descending Boston Center
05:04PM 42.9128 -76.1600 354° North 319 367 5,400 -1,560 Descending Boston Center
05:05PM 43.0103 -76.1744 354° North 319 367 4,000 -1,080 Descending Boston Center
05:06PM 43.0800 -76.2128 338° Northwest 269 310 3,200 -540 Descending Boston Center
05:07PM 43.1369 -76.2503 334° Northwest 231 266 3,000 -600 Descending Boston Center
05:08PM 43.1783 -76.1961 44° Northeast 184 212 2,000 -900 Descending Boston Center
05:09PM 43.1506 -76.1600 137° Southeast 125 144 1,100 -900 Descending Boston Center